createdAt,value
2017-06-03T00:02:18.791Z,24.20
2017-06-03T00:04:47.607Z,21.72
2017-06-03T00:07:16.439Z,23.66
2017-06-03T00:09:45.262Z,25.60
2017-06-03T00:12:14.091Z,18.70
2017-06-03T00:14:42.899Z,18.96
2017-06-03T00:17:11.734Z,19.54
2017-06-03T00:19:40.576Z,18.82
2017-06-03T00:22:09.403Z,20.26
2017-06-03T00:24:38.218Z,16.96
2017-06-03T00:27:07.074Z,16.84
2017-06-03T00:29:35.887Z,17.92
2017-06-03T00:32:04.723Z,18.48
2017-06-03T00:34:32.815Z,17.78
2017-06-03T00:37:01.619Z,19.08
2017-06-03T00:39:30.428Z,17.20
2017-06-03T00:41:59.250Z,15.50
2017-06-03T00:44:28.088Z,16.98
2017-06-03T00:46:56.915Z,16.70
2017-06-03T00:49:25.743Z,16.16
2017-06-03T00:51:55.308Z,16.22
2017-06-03T00:54:24.125Z,17.62
2017-06-03T00:56:53.136Z,17.44
2017-06-03T00:59:21.950Z,19.18
2017-06-03T01:01:50.759Z,16.06
2017-06-03T01:04:19.578Z,17.04
2017-06-03T01:06:48.417Z,16.94
2017-06-03T01:09:17.227Z,18.52
2017-06-03T01:11:46.086Z,16.48
2017-06-03T01:14:14.871Z,18.92
2017-06-03T01:16:43.712Z,17.42
2017-06-03T01:19:12.526Z,19.02
2017-06-03T01:21:41.342Z,18.52
2017-06-03T01:24:10.187Z,17.82
2017-06-03T01:26:39.001Z,19.00
2017-06-03T01:29:07.815Z,18.70
2017-06-03T01:31:36.703Z,17.90
2017-06-03T01:34:05.518Z,16.52
2017-06-03T01:36:34.331Z,17.52
2017-06-03T01:39:03.171Z,17.32
2017-06-03T01:41:31.981Z,14.56
2017-06-03T01:44:00.813Z,18.40
2017-06-03T01:46:29.647Z,17.90
2017-06-03T01:48:58.455Z,19.10
2017-06-03T01:51:27.268Z,18.12
2017-06-03T01:53:56.106Z,18.52
2017-06-03T01:56:24.919Z,15.98
2017-06-03T01:58:53.770Z,17.82
2017-06-03T02:01:22.578Z,19.52
2017-06-03T02:03:50.615Z,18.52
2017-06-03T02:06:19.422Z,18.96
2017-06-03T02:08:48.255Z,19.60
2017-06-03T02:11:17.070Z,20.34
2017-06-03T02:13:45.903Z,19.96
2017-06-03T02:16:14.718Z,18.92
2017-06-03T02:18:43.542Z,19.90
2017-06-03T02:21:12.369Z,19.84
2017-06-03T02:23:41.187Z,21.46
2017-06-03T02:26:10.003Z,19.98
2017-06-03T02:28:38.835Z,20.16
2017-06-03T02:31:07.651Z,19.52
2017-06-03T02:33:36.483Z,21.64
2017-06-03T02:36:05.320Z,20.92
2017-06-03T02:38:34.159Z,20.18
2017-06-03T02:41:03.089Z,20.58
2017-06-03T02:43:31.883Z,17.96
2017-06-03T02:46:00.694Z,20.60
2017-06-03T02:48:29.531Z,19.22
2017-06-03T02:50:58.374Z,19.08
2017-06-03T02:53:27.183Z,20.98
2017-06-03T02:55:56.030Z,20.22
2017-06-03T02:58:24.858Z,20.94
2017-06-03T03:00:53.683Z,22.88
2017-06-03T03:03:22.518Z,21.42
2017-06-03T03:05:51.327Z,22.12
2017-06-03T03:08:20.528Z,24.74
2017-06-03T03:10:49.367Z,24.32
2017-06-03T03:13:18.206Z,23.92
2017-06-03T03:15:47.041Z,23.08
2017-06-03T03:18:15.855Z,20.20
2017-06-03T03:20:44.675Z,20.92
2017-06-03T03:23:13.514Z,20.10
2017-06-03T03:25:42.329Z,23.24
2017-06-03T03:28:11.139Z,25.52
2017-06-03T03:30:39.990Z,24.38
2017-06-03T03:33:08.796Z,21.56
2017-06-03T03:35:37.623Z,22.42
2017-06-03T03:38:06.448Z,25.22
2017-06-03T03:40:35.267Z,25.96
2017-06-03T03:43:04.099Z,25.78
2017-06-03T03:45:32.917Z,25.76
2017-06-03T03:48:01.732Z,24.12
2017-06-03T03:50:30.557Z,23.94
2017-06-03T03:52:59.402Z,25.90
2017-06-03T03:55:28.218Z,18.66
2017-06-03T03:57:57.043Z,20.50
2017-06-03T04:00:25.878Z,24.28
2017-06-03T04:02:54.764Z,22.94
2017-06-03T04:05:23.573Z,24.48
2017-06-03T04:07:52.393Z,22.64
2017-06-03T04:10:21.214Z,23.10
2017-06-03T04:12:50.052Z,23.12
2017-06-03T04:15:18.870Z,20.62
2017-06-03T04:17:47.706Z,23.18
2017-06-03T04:20:16.522Z,22.50
2017-06-03T04:22:45.338Z,24.88
2017-06-03T04:25:14.186Z,25.34
2017-06-03T04:27:43.027Z,26.54
2017-06-03T04:30:11.880Z,23.40
2017-06-03T04:32:40.703Z,24.66
2017-06-03T04:35:09.543Z,22.36
2017-06-03T04:37:38.375Z,24.92
2017-06-03T04:40:07.216Z,22.84
2017-06-03T04:42:36.038Z,25.44
2017-06-03T04:45:04.853Z,26.80
2017-06-03T04:47:33.678Z,26.44
2017-06-03T04:50:02.504Z,25.80
2017-06-03T04:52:31.323Z,26.44
2017-06-03T04:55:00.138Z,30.22
2017-06-03T04:57:28.971Z,27.66
2017-06-03T04:59:57.787Z,25.68
2017-06-03T05:02:26.603Z,30.24
2017-06-03T05:04:55.463Z,29.68
2017-06-03T05:07:24.279Z,28.88
2017-06-03T05:09:53.112Z,31.80
2017-06-03T05:12:21.955Z,24.94
2017-06-03T05:14:50.795Z,29.64
2017-06-03T05:17:19.615Z,31.08
2017-06-03T05:19:48.428Z,27.54
2017-06-03T05:22:17.268Z,27.62
2017-06-03T05:24:46.144Z,28.32
2017-06-03T05:27:14.977Z,28.92
2017-06-03T05:29:43.791Z,29.00
2017-06-03T05:32:12.604Z,25.80
2017-06-03T05:34:41.429Z,25.20
2017-06-03T05:37:10.256Z,25.20
2017-06-03T05:39:39.073Z,25.14
2017-06-03T05:42:07.895Z,26.00
2017-06-03T05:44:36.722Z,29.18
2017-06-03T05:47:05.555Z,26.26
2017-06-03T05:49:34.367Z,27.76
2017-06-03T05:52:03.194Z,28.22
2017-06-03T05:54:32.078Z,26.36
2017-06-03T05:57:00.917Z,26.78
2017-06-03T05:59:29.745Z,27.14
2017-06-03T06:01:58.596Z,28.28
2017-06-03T06:04:26.648Z,25.66
2017-06-03T06:06:55.463Z,25.08
2017-06-03T06:09:24.290Z,27.18
2017-06-03T06:11:53.127Z,31.88
2017-06-03T06:14:21.959Z,38.94
2017-06-03T06:16:50.767Z,36.92
2017-06-03T06:19:19.611Z,44.78
2017-06-03T06:21:48.452Z,52.32
2017-06-03T06:24:17.273Z,51.82
2017-06-03T06:26:46.104Z,66.92
2017-06-03T06:29:14.924Z,75.64
2017-06-03T06:31:43.758Z,76.46
2017-06-03T06:34:12.590Z,58.60
2017-06-03T06:36:41.427Z,64.38
2017-06-03T06:39:10.248Z,66.40
2017-06-03T06:41:39.090Z,65.22
2017-06-03T06:44:35.015Z,57.77
2017-06-03T06:47:03.107Z,55.40
2017-06-03T06:49:31.180Z,57.67
2017-06-03T06:51:59.251Z,56.23
2017-06-03T06:54:27.355Z,58.17
2017-06-03T06:56:55.414Z,65.13
2017-06-03T06:59:23.487Z,70.60
2017-06-03T07:01:51.575Z,74.70
2017-06-03T07:04:19.682Z,66.57
2017-06-03T07:06:47.765Z,71.57
2017-06-03T07:09:16.591Z,73.60
2017-06-03T07:11:44.789Z,60.00
2017-06-03T07:14:12.872Z,52.37
2017-06-03T07:16:40.927Z,59.80
2017-06-03T07:19:09.027Z,52.80
2017-06-03T07:21:37.493Z,53.27
2017-06-03T07:24:05.574Z,49.30
2017-06-03T07:26:33.854Z,51.00
2017-06-03T07:29:06.299Z,43.47
2017-06-03T07:31:34.352Z,48.10
2017-06-03T07:34:03.487Z,44.90
2017-06-03T07:36:31.563Z,39.00
2017-06-03T07:38:59.630Z,41.37
2017-06-03T07:41:27.716Z,43.43
2017-06-03T07:43:56.595Z,43.00
2017-06-03T07:46:24.655Z,37.43
2017-06-03T07:48:52.719Z,40.47
2017-06-03T07:51:20.821Z,41.17
2017-06-03T07:53:48.875Z,38.43
2017-06-03T07:56:16.968Z,33.80
2017-06-03T07:58:45.855Z,33.43
2017-06-03T08:01:13.911Z,35.20
2017-06-03T08:03:41.998Z,31.80
2017-06-03T08:06:10.073Z,31.37
2017-06-03T08:08:38.143Z,26.50
2017-06-03T08:11:06.232Z,28.10
2017-06-03T08:13:34.296Z,26.60
2017-06-03T08:16:02.396Z,32.13
2017-06-03T08:18:31.234Z,23.73
2017-06-03T08:20:59.320Z,25.50
2017-06-03T08:23:27.384Z,24.70
2017-06-03T08:25:55.451Z,24.50
2017-06-03T08:28:23.538Z,26.60
2017-06-03T08:30:51.615Z,27.87
2017-06-03T08:33:19.691Z,27.60
2017-06-03T08:35:47.799Z,26.20
2017-06-03T08:38:15.876Z,26.90
2017-06-03T08:40:43.958Z,23.00
2017-06-03T08:43:12.022Z,24.90
2017-06-03T08:45:40.095Z,24.03
2017-06-03T08:48:08.185Z,24.33
2017-06-03T08:50:36.247Z,21.63
2017-06-03T08:53:04.343Z,20.97
2017-06-03T08:55:32.407Z,18.60
2017-06-03T08:58:00.459Z,18.20
2017-06-03T09:00:28.569Z,20.43
2017-06-03T09:02:56.643Z,19.23
2017-06-03T09:05:24.715Z,19.70
2017-06-03T09:07:52.774Z,18.63
2017-06-03T09:10:20.862Z,15.63
2017-06-03T09:12:48.933Z,20.40
2017-06-03T09:15:17.007Z,18.70
2017-06-03T09:17:45.077Z,14.67
2017-06-03T09:20:13.156Z,12.77
2017-06-03T09:22:41.243Z,13.00
2017-06-03T09:25:09.379Z,12.50
2017-06-03T09:27:38.941Z,13.93
2017-06-03T09:30:07.041Z,14.20
2017-06-03T09:32:35.119Z,15.07
2017-06-03T09:35:03.166Z,12.63
2017-06-03T09:37:32.059Z,15.37
2017-06-03T09:40:00.895Z,15.33
2017-06-03T09:42:28.963Z,14.97
2017-06-03T09:44:57.123Z,14.63
2017-06-03T09:47:25.976Z,15.60
2017-06-03T09:49:54.017Z,15.47
2017-06-03T09:52:22.087Z,13.20
2017-06-03T09:54:50.163Z,15.30
2017-06-03T09:57:18.255Z,15.57
2017-06-03T09:59:46.343Z,16.80
2017-06-03T10:02:15.260Z,16.50
2017-06-03T10:04:43.305Z,14.20
2017-06-03T10:07:12.147Z,15.33
2017-06-03T10:09:40.221Z,14.03
2017-06-03T10:12:08.300Z,14.23
2017-06-03T10:14:36.384Z,16.40
2017-06-03T10:17:05.246Z,14.60
2017-06-03T10:19:33.318Z,17.97
2017-06-03T10:22:01.411Z,15.50
2017-06-03T10:24:29.475Z,16.97
2017-06-03T10:26:58.321Z,17.13
2017-06-03T10:29:26.447Z,16.80
2017-06-03T10:31:54.501Z,14.50
2017-06-03T10:34:22.579Z,13.40
2017-06-03T10:36:51.840Z,15.50
2017-06-03T10:39:20.771Z,14.33
2017-06-03T10:41:48.882Z,18.00
2017-06-03T10:44:16.935Z,18.53
2017-06-03T10:46:45.014Z,18.47
2017-06-03T10:49:13.098Z,16.73
2017-06-03T10:51:41.193Z,19.53
2017-06-03T10:54:09.271Z,20.63
2017-06-03T10:56:37.370Z,16.37
2017-06-03T10:59:05.465Z,17.07
2017-06-03T11:01:34.351Z,20.20
2017-06-03T11:04:03.176Z,17.53
2017-06-03T11:19:31.275Z,14.87
2017-06-03T11:22:00.115Z,16.60
2017-06-03T11:24:28.194Z,15.50
2017-06-03T11:26:56.288Z,17.00
2017-06-03T11:39:09.375Z,15.07
2017-06-03T11:41:37.443Z,14.40
2017-06-03T11:44:05.524Z,16.60
2017-06-03T11:46:33.611Z,13.80
2017-06-03T11:49:02.442Z,12.50
2017-06-03T11:51:30.611Z,13.30
2017-06-03T11:53:58.728Z,13.40
2017-06-03T11:56:26.788Z,13.70
2017-06-03T11:58:54.867Z,16.97
2017-06-03T12:01:22.940Z,12.50
2017-06-03T12:03:51.803Z,13.47
2017-06-03T12:06:19.879Z,10.70
2017-06-03T12:08:47.955Z,11.60
2017-06-03T12:11:16.056Z,12.10
2017-06-03T12:13:44.131Z,11.53
2017-06-03T12:16:12.964Z,13.00
2017-06-03T12:18:41.086Z,12.00
2017-06-03T12:21:09.137Z,9.40
2017-06-03T12:23:37.224Z,13.73
2017-06-03T12:26:05.280Z,14.13
2017-06-03T12:28:33.384Z,12.70
2017-06-03T12:31:02.208Z,17.80
2017-06-03T12:33:30.285Z,16.97
2017-06-03T12:35:58.455Z,18.60
2017-06-03T12:38:27.264Z,19.00
2017-06-03T12:40:55.341Z,18.70
2017-06-03T12:43:23.446Z,22.23
2017-06-03T12:45:51.506Z,18.73
2017-06-03T12:48:19.583Z,18.13
2017-06-03T12:50:47.658Z,17.10
2017-06-03T12:53:16.503Z,16.00
2017-06-03T12:55:44.591Z,18.20
2017-06-03T12:58:12.667Z,18.53
2017-06-03T13:00:40.748Z,19.43
2017-06-03T13:03:08.865Z,17.50
2017-06-03T13:05:36.911Z,17.70
2017-06-03T13:08:04.998Z,18.07
2017-06-03T13:10:33.082Z,15.73
2017-06-03T13:13:01.173Z,15.70
2017-06-03T13:15:29.247Z,14.67
2017-06-03T13:17:57.331Z,14.00
2017-06-03T13:20:25.503Z,13.53
2017-06-03T13:22:54.368Z,13.70
2017-06-03T13:25:22.509Z,13.57
2017-06-03T13:27:51.396Z,13.40
2017-06-03T13:30:21.110Z,11.07
2017-06-03T13:32:49.196Z,13.13
2017-06-03T13:35:17.291Z,11.33
2017-06-03T13:37:45.367Z,10.23
2017-06-03T13:40:13.448Z,11.57
2017-06-03T13:42:41.532Z,8.93
2017-06-03T13:45:10.387Z,8.90
2017-06-03T13:47:38.494Z,9.60
2017-06-03T13:50:06.541Z,9.00
2017-06-03T13:52:34.602Z,10.73
2017-06-03T13:55:02.688Z,10.37
2017-06-03T13:57:30.759Z,8.70
2017-06-03T13:59:58.834Z,11.27
2017-06-03T14:02:26.903Z,10.50
2017-06-03T14:04:54.971Z,9.90
2017-06-03T14:07:23.045Z,10.77
2017-06-03T14:09:51.132Z,9.93
2017-06-03T14:12:19.183Z,11.60
2017-06-03T14:14:47.262Z,10.57
2017-06-03T14:17:15.323Z,12.30
2017-06-03T14:19:43.434Z,10.33
2017-06-03T14:22:11.503Z,10.93
2017-06-03T14:24:39.594Z,10.97
2017-06-03T14:27:07.654Z,10.13
2017-06-03T14:29:36.504Z,9.70
2017-06-03T14:32:04.581Z,10.67
2017-06-03T14:34:32.682Z,10.27
2017-06-03T14:37:02.039Z,11.30
2017-06-03T14:39:30.104Z,9.93
2017-06-03T14:41:58.177Z,11.23
2017-06-03T14:44:26.249Z,10.73
2017-06-03T14:46:54.340Z,10.60
2017-06-03T14:49:22.405Z,9.60
2017-06-03T14:51:50.472Z,9.90
2017-06-03T14:54:18.527Z,4.40
2017-06-03T14:56:46.588Z,5.70
2017-06-03T14:59:14.690Z,6.53
2017-06-03T15:01:42.743Z,10.43
2017-06-03T15:04:10.805Z,11.10
2017-06-03T15:06:38.923Z,13.93
2017-06-03T15:09:06.994Z,16.47
2017-06-03T15:11:35.296Z,13.60
2017-06-03T15:14:03.350Z,13.73
2017-06-03T15:16:31.790Z,12.57
2017-06-03T15:19:00.595Z,16.50
2017-06-03T15:21:28.679Z,16.37
2017-06-03T15:23:56.759Z,14.80
2017-06-03T15:26:24.839Z,12.90
2017-06-03T15:28:52.950Z,14.70
2017-06-03T15:31:21.052Z,13.93
2017-06-03T15:33:49.140Z,17.90
2017-06-03T15:36:17.190Z,14.20
2017-06-03T15:38:45.288Z,14.17
2017-06-03T15:41:13.372Z,15.60
2017-06-03T15:43:41.451Z,17.33
2017-06-03T15:46:09.540Z,14.03
2017-06-03T15:48:38.873Z,14.60
2017-06-03T15:51:06.945Z,12.47
2017-06-03T15:53:35.040Z,16.07
2017-06-03T15:56:03.125Z,12.50
2017-06-03T15:58:31.198Z,12.43
2017-06-03T16:00:59.268Z,12.00
2017-06-03T16:03:27.354Z,11.60
2017-06-03T16:05:55.411Z,13.33
2017-06-03T16:08:23.517Z,12.23
2017-06-03T16:10:51.595Z,11.47
2017-06-03T16:13:19.668Z,13.20
2017-06-03T16:15:47.779Z,14.17
2017-06-03T16:18:15.860Z,13.50
2017-06-03T16:20:43.927Z,14.10
2017-06-03T16:23:12.016Z,15.00
2017-06-03T16:25:40.859Z,15.47
2017-06-03T16:28:08.918Z,15.10
2017-06-03T16:30:37.039Z,15.77
2017-06-03T16:33:05.863Z,17.90
2017-06-03T16:35:34.881Z,17.57
2017-06-03T16:38:02.969Z,18.00
2017-06-03T16:40:31.054Z,20.17
2017-06-03T16:42:59.135Z,16.80
2017-06-03T16:45:27.199Z,16.20
2017-06-03T16:47:55.296Z,19.10
2017-06-03T16:50:24.117Z,17.30
2017-06-03T16:52:52.195Z,18.20
2017-06-03T16:55:20.268Z,19.77
2017-06-03T16:57:48.340Z,18.80
2017-06-03T17:00:16.434Z,18.57
2017-06-03T17:02:44.539Z,19.30
2017-06-03T17:05:14.384Z,19.47
2017-06-03T17:07:42.539Z,20.50
2017-06-03T17:10:11.404Z,19.40
2017-06-03T17:12:39.503Z,19.53
2017-06-03T17:15:07.582Z,21.90
2017-06-03T17:17:35.628Z,18.90
2017-06-03T17:20:05.288Z,18.63
2017-06-03T17:22:33.357Z,21.97
2017-06-03T17:25:01.448Z,22.67
2017-06-03T17:27:29.526Z,21.43
2017-06-03T17:29:58.367Z,24.17
2017-06-03T17:32:26.461Z,23.77
2017-06-03T17:34:54.558Z,24.30
2017-06-03T17:37:22.628Z,20.90
2017-06-03T17:39:50.725Z,32.00
2017-06-03T17:42:19.542Z,26.80
2017-06-03T17:44:47.634Z,22.20
2017-06-03T17:47:15.712Z,24.20
2017-06-03T17:49:43.797Z,23.60
2017-06-03T17:52:11.867Z,22.10
2017-06-03T17:54:39.960Z,24.60
2017-06-03T17:57:08.059Z,22.53
2017-06-03T17:59:36.140Z,25.03
2017-06-03T18:02:04.210Z,22.70
2017-06-03T18:04:32.377Z,25.47
2017-06-03T18:07:00.460Z,25.90
2017-06-03T18:09:28.553Z,26.83
2017-06-03T18:11:56.618Z,24.33
2017-06-03T18:14:25.470Z,26.63
2017-06-03T18:16:53.573Z,26.50
2017-06-03T18:19:21.684Z,25.90
2017-06-03T18:21:50.498Z,25.47
2017-06-03T18:24:18.576Z,25.80
2017-06-03T18:26:46.652Z,22.27
2017-06-03T18:29:14.729Z,26.33
2017-06-03T18:31:42.838Z,30.47
2017-06-03T18:34:11.686Z,29.27
2017-06-03T18:36:39.771Z,25.33
2017-06-03T18:39:07.867Z,26.77
2017-06-03T18:41:36.735Z,24.57
2017-06-03T18:44:04.822Z,25.30
2017-06-03T18:46:33.675Z,27.60
2017-06-03T18:49:01.832Z,25.83
2017-06-03T18:51:29.899Z,27.50
2017-06-03T18:53:58.779Z,25.17
2017-06-03T18:56:26.876Z,26.07
2017-06-03T18:58:54.948Z,25.10
2017-06-03T19:01:23.020Z,24.93
2017-06-03T19:03:51.099Z,26.77
2017-06-03T19:06:19.160Z,28.90
2017-06-03T19:08:47.273Z,27.53
2017-06-03T19:11:15.347Z,27.23
2017-06-03T19:13:43.411Z,27.40
2017-06-03T19:16:11.520Z,25.43
2017-06-03T19:18:39.603Z,46.97
2017-06-03T19:21:08.427Z,33.10
2017-06-03T19:23:36.533Z,32.40
2017-06-03T19:26:04.588Z,27.70
2017-06-03T19:28:32.709Z,30.20
2017-06-03T19:31:00.768Z,29.10
2017-06-03T19:33:28.838Z,30.33
2017-06-03T19:35:56.920Z,28.93
2017-06-03T19:38:25.757Z,30.90
2017-06-03T19:40:53.823Z,30.77
2017-06-03T19:43:22.527Z,31.77
2017-06-03T19:45:50.597Z,33.10
2017-06-03T19:48:18.694Z,30.83
2017-06-03T19:50:46.814Z,31.00
2017-06-03T19:53:14.912Z,31.53
2017-06-03T19:55:43.007Z,35.60
2017-06-03T19:58:11.076Z,36.53
2017-06-03T20:00:39.150Z,37.07
2017-06-03T20:03:07.262Z,37.80
2017-06-03T20:05:36.098Z,39.30
2017-06-03T20:08:04.200Z,39.77
2017-06-03T20:10:32.273Z,37.67
2017-06-03T20:13:00.347Z,38.20
2017-06-03T20:15:28.415Z,38.47
2017-06-03T20:17:56.493Z,40.27
2017-06-03T20:20:24.575Z,40.67
2017-06-03T20:22:53.494Z,40.77
2017-06-03T20:25:21.591Z,39.30
2017-06-03T20:27:49.689Z,41.50
2017-06-03T20:30:17.764Z,41.10
2017-06-03T20:32:45.820Z,44.73
2017-06-03T20:35:13.896Z,41.90
2017-06-03T20:37:41.996Z,42.80
2017-06-03T20:40:10.072Z,43.40
2017-06-03T20:42:38.160Z,40.50
2017-06-03T20:45:07.008Z,42.70
2017-06-03T20:47:35.106Z,42.77
2017-06-03T20:50:03.171Z,46.00
2017-06-03T20:52:31.242Z,41.77
2017-06-03T20:54:59.311Z,47.20
2017-06-03T20:57:27.380Z,43.90
2017-06-03T20:59:55.478Z,46.00
2017-06-03T21:02:23.532Z,48.43
2017-06-03T21:04:51.603Z,47.97
2017-06-03T21:07:19.687Z,45.33
2017-06-03T21:09:48.512Z,47.63
2017-06-03T21:12:16.637Z,46.43
2017-06-03T21:14:45.488Z,46.90
2017-06-03T21:17:13.548Z,46.13
2017-06-03T21:19:41.634Z,50.00
2017-06-03T21:22:09.729Z,46.50
2017-06-03T21:24:37.791Z,48.33
2017-06-03T21:27:05.854Z,46.00
2017-06-03T21:29:33.955Z,44.53
2017-06-03T21:32:02.024Z,40.47
2017-06-03T21:34:31.026Z,43.10
2017-06-03T21:36:59.855Z,41.07
2017-06-03T21:39:27.957Z,45.27
2017-06-03T21:41:56.042Z,42.30
2017-06-03T21:44:24.155Z,43.90
2017-06-03T21:46:52.266Z,43.80
2017-06-03T21:49:20.347Z,45.50
2017-06-03T21:51:48.416Z,43.63
2017-06-03T21:54:16.603Z,44.83
2017-06-03T21:56:44.666Z,46.27
2017-06-03T21:59:12.731Z,45.90
2017-06-03T22:01:40.838Z,48.70
2017-06-03T22:04:08.929Z,44.33
2017-06-03T22:06:37.033Z,45.97
2017-06-03T22:09:05.134Z,49.03
2017-06-03T22:11:33.217Z,48.70
2017-06-03T22:14:01.277Z,43.03
2017-06-03T22:16:29.352Z,49.73
2017-06-03T22:18:58.179Z,50.03
2017-06-03T22:21:26.275Z,49.00
2017-06-03T22:23:54.367Z,54.20
2017-06-03T22:26:22.445Z,55.80
2017-06-03T22:28:50.543Z,53.70
2017-06-03T22:31:18.620Z,53.00
2017-06-03T22:33:46.681Z,48.33
2017-06-03T22:36:15.523Z,54.53
2017-06-03T22:38:43.604Z,52.37
2017-06-03T22:41:11.663Z,52.87
2017-06-03T22:43:39.735Z,45.90
2017-06-03T22:46:07.802Z,46.63
2017-06-03T22:48:35.892Z,53.17
2017-06-03T22:51:03.982Z,49.83
2017-06-03T22:53:32.047Z,62.23
2017-06-03T22:56:00.137Z,57.93
2017-06-03T22:58:28.201Z,51.27
2017-06-03T23:00:57.059Z,60.03
2017-06-03T23:03:25.136Z,45.27
2017-06-03T23:05:53.213Z,44.33
2017-06-03T23:08:21.275Z,41.57
2017-06-03T23:10:49.338Z,39.23
2017-06-03T23:13:19.396Z,39.50
2017-06-03T23:15:47.469Z,41.47
2017-06-03T23:18:15.547Z,46.73
2017-06-03T23:20:43.639Z,41.03
2017-06-03T23:23:11.703Z,41.40
2017-06-03T23:25:39.783Z,40.60
2017-06-03T23:28:07.863Z,39.93
2017-06-03T23:30:35.930Z,38.60
2017-06-03T23:33:04.040Z,41.13
2017-06-03T23:35:32.086Z,41.47
2017-06-03T23:38:00.910Z,36.93
2017-06-03T23:40:28.988Z,37.00
2017-06-03T23:42:57.055Z,39.67
2017-06-03T23:45:25.147Z,37.80
2017-06-03T23:47:53.206Z,42.97
2017-06-03T23:50:21.280Z,41.47
2017-06-03T23:52:49.360Z,39.37
2017-06-03T23:55:17.425Z,43.13
2017-06-03T23:57:45.524Z,39.70
